Terminal Aerodrome Forecast
Issued by NWS Tuscon, AZ

Home | Current Version | Previous Version | Text Only | Print | Product List | Glossary On
Versions: 1 2 3 4 5 6 7 8 9 10 11 12 13 14 15
000
FTUS45 KTWC 110500
TAFDUG
TAF
KDUG 110536Z 1106/1206 27009KT P6SM SCT110 BKN200
     FM110700 35008KT P6SM VCTS SCT060CB BKN110
      TEMPO 1107/1109 VRB15G30KT 4SM TSRA SCT035 BKN050CB
     FM110900 01005KT P6SM SCT110 BKN200
     FM111700 34006KT P6SM SCT050 SCT100
     FM112100 30009KT P6SM VCTS SCT050CB BKN100
     FM120100 32008KT P6SM SCT050 BKN100=

USA.gov is the U.S. government's official web portal to all federal, state and local government web resources and services.